METAR Formatted Surface Weather Observation
Issued by NWS

Home | Current Version | Previous Version | Text Only | Print | Product List | Glossary On
Versions: 1 2 3 4 5 6 7 8 9 10 11 12 13 14 15 16
000
SAUS46 KSGX 231057
MTRNRS
METAR KNRS 231056Z AUTO 03005KT 7SM OVC007 16/14 A2994 RMK AO2
SLP138 T01610139



USA.gov is the U.S. government's official web portal to all federal, state and local government web resources and services.